East Canton, Ohio
Current Conditions -  °F | °C
As of 10:51 PM on Tuesday 27 Jan 2015 (Local Time) from KCAK Reporting Station
Overcast Overcast  
Wind Chill:   Ceiling: 1300
Heat Index: 18°   Visibility: 10mi
Dew Point: 12°   Wind: 9mph
Humidity: 78%   Direction: 340°NNW
Pressure: 30.13"   Gusts: NA
Location:  40.7679°N, 81.2601°W
Report Text: KCAK 280351Z 34008KT 10SM BKN013 OVC100 M08/M11 A3013 RMK AO2 SLP225 T10781111 $
Loading
Personal Weather Stations






























Interactive Weather Map New forecast layout! Learn more

10-Day Weather Forecast

Advertisements
Track Severe Weather on mobile